createdAt,value
2022-07-31T00:02:11.577Z,4.15
2022-07-31T00:04:41.244Z,4.57
2022-07-31T00:07:13.468Z,5.88
2022-07-31T00:09:52.466Z,5.70
2022-07-31T00:12:24.927Z,5.40
2022-07-31T00:14:54.615Z,4.72
2022-07-31T00:17:24.332Z,10.77
2022-07-31T00:19:54.012Z,7.70
2022-07-31T00:22:26.291Z,6.20
2022-07-31T00:24:55.967Z,5.18
2022-07-31T00:27:25.728Z,11.02
2022-07-31T00:29:55.516Z,5.05
2022-07-31T00:32:25.206Z,6.05
2022-07-31T00:34:55.003Z,15.53
2022-07-31T00:37:27.641Z,6.88
2022-07-31T00:39:57.387Z,5.00
2022-07-31T00:42:29.121Z,6.43
2022-07-31T00:44:58.730Z,4.93
2022-07-31T00:47:29.901Z,4.20
2022-07-31T00:49:59.774Z,28.27
2022-07-31T00:52:32.080Z,9.60
2022-07-31T00:55:01.721Z,5.13
2022-07-31T00:57:31.374Z,5.00
2022-07-31T01:00:01.096Z,4.97
2022-07-31T01:02:30.719Z,10.13
2022-07-31T01:05:00.440Z,6.00
2022-07-31T01:07:32.967Z,5.18
2022-07-31T01:10:05.114Z,4.43
2022-07-31T01:12:39.670Z,4.72
2022-07-31T01:15:11.098Z,4.43
2022-07-31T01:17:41.710Z,4.47
2022-07-31T01:20:14.037Z,4.60
2022-07-31T01:22:59.227Z,5.20
2022-07-31T01:25:41.585Z,4.82
2022-07-31T01:28:30.268Z,4.50
2022-07-31T01:31:25.392Z,4.70
2022-07-31T01:34:01.168Z,5.00
2022-07-31T01:36:35.201Z,4.60
2022-07-31T01:39:06.620Z,4.53
2022-07-31T01:41:46.264Z,4.30
2022-07-31T01:44:18.503Z,4.50
2022-07-31T01:46:51.555Z,4.55
2022-07-31T01:49:21.771Z,4.40
2022-07-31T01:51:52.727Z,4.60
2022-07-31T01:54:25.156Z,4.50
2022-07-31T01:56:55.457Z,4.72
2022-07-31T01:59:25.829Z,4.97
2022-07-31T02:02:16.756Z,5.35
2022-07-31T02:04:47.149Z,5.35
2022-07-31T02:07:17.851Z,5.28
2022-07-31T02:09:57.083Z,4.95
2022-07-31T02:12:34.064Z,4.70
2022-07-31T02:15:06.618Z,4.80
2022-07-31T02:17:40.715Z,5.30
2022-07-31T02:20:26.265Z,5.43
2022-07-31T02:22:58.384Z,5.10
2022-07-31T02:25:28.840Z,5.20
2022-07-31T02:28:00.326Z,5.35
2022-07-31T02:30:38.297Z,5.30
2022-07-31T02:33:15.769Z,5.32
2022-07-31T02:35:48.004Z,4.95
2022-07-31T02:38:22.830Z,4.65
2022-07-31T02:40:55.839Z,5.70
2022-07-31T02:43:26.925Z,4.60
2022-07-31T02:45:59.461Z,4.70
2022-07-31T02:48:32.198Z,4.90
2022-07-31T02:51:06.246Z,5.30
2022-07-31T02:53:37.875Z,5.00
2022-07-31T02:56:11.043Z,5.30
2022-07-31T02:58:44.496Z,5.50
2022-07-31T03:01:29.048Z,4.70
2022-07-31T03:04:02.227Z,4.53
2022-07-31T03:06:32.605Z,4.75
2022-07-31T03:09:02.308Z,5.10
2022-07-31T03:11:34.368Z,5.23
2022-07-31T03:14:04.651Z,5.40
2022-07-31T03:16:34.996Z,4.70
2022-07-31T03:19:08.676Z,4.65
2022-07-31T03:21:38.832Z,5.43
2022-07-31T03:24:11.943Z,4.55
2022-07-31T03:26:42.559Z,4.97
2022-07-31T03:29:39.093Z,4.60
2022-07-31T03:32:03.583Z,4.65
2022-07-31T03:34:36.110Z,5.07
2022-07-31T03:37:06.722Z,4.60
2022-07-31T03:39:36.398Z,4.85
2022-07-31T03:42:12.923Z,5.10
2022-07-31T03:44:49.554Z,4.50
2022-07-31T03:47:20.550Z,5.22
2022-07-31T03:49:52.932Z,3.72
2022-07-31T03:52:23.357Z,3.70
2022-07-31T03:54:53.140Z,3.92
2022-07-31T03:57:27.017Z,3.20
2022-07-31T04:00:00.002Z,3.90
2022-07-31T04:02:31.902Z,3.47
2022-07-31T04:05:15.186Z,3.60
2022-07-31T04:07:44.895Z,3.70
2022-07-31T04:10:15.091Z,3.63
2022-07-31T04:12:44.888Z,3.63
2022-07-31T04:15:14.764Z,3.72
2022-07-31T04:17:44.587Z,3.60
2022-07-31T04:20:17.288Z,3.45
2022-07-31T04:22:47.153Z,3.63
2022-07-31T04:25:29.701Z,3.53
2022-07-31T04:28:22.513Z,3.70
2022-07-31T04:30:52.185Z,3.67
2022-07-31T04:33:22.137Z,3.53
2022-07-31T04:35:54.784Z,4.10
2022-07-31T04:38:24.564Z,3.80
2022-07-31T04:40:54.402Z,4.10
2022-07-31T04:43:24.140Z,3.90
2022-07-31T04:45:53.831Z,4.10
2022-07-31T04:48:23.543Z,3.63
2022-07-31T04:50:55.912Z,4.23
2022-07-31T04:53:25.584Z,4.15
2022-07-31T04:56:07.629Z,3.92
2022-07-31T04:58:37.450Z,4.30
2022-07-31T05:01:07.820Z,3.85
2022-07-31T05:03:39.428Z,4.68
2022-07-31T05:06:16.035Z,4.07
2022-07-31T05:08:46.162Z,4.22
2022-07-31T05:11:27.768Z,4.40
2022-07-31T05:13:59.079Z,4.00
2022-07-31T05:16:29.667Z,4.60
2022-07-31T05:19:00.419Z,4.15
2022-07-31T05:22:05.653Z,4.68
2022-07-31T05:25:00.540Z,4.80
2022-07-31T05:27:32.017Z,5.00
2022-07-31T05:30:02.035Z,4.25
2022-07-31T05:32:33.536Z,4.80
2022-07-31T05:35:03.220Z,4.90
2022-07-31T05:37:35.960Z,5.15
2022-07-31T05:40:08.616Z,5.30
2022-07-31T05:42:56.922Z,5.00
2022-07-31T05:45:35.015Z,4.70
2022-07-31T05:48:04.689Z,4.20
2022-07-31T05:50:34.489Z,5.13
2022-07-31T05:53:06.514Z,5.70
2022-07-31T05:55:55.119Z,4.50
2022-07-31T05:58:48.409Z,4.80
2022-07-31T06:01:19.199Z,4.70
2022-07-31T06:03:51.965Z,4.97
2022-07-31T06:06:29.401Z,5.23
2022-07-31T06:09:04.769Z,5.35
2022-07-31T06:11:38.507Z,5.40
2022-07-31T06:14:08.316Z,5.68
2022-07-31T06:17:16.279Z,5.50
2022-07-31T06:19:46.166Z,5.50
2022-07-31T06:22:16.505Z,5.40
2022-07-31T06:24:48.870Z,6.20
2022-07-31T06:27:33.376Z,5.40
2022-07-31T06:30:05.899Z,5.57
2022-07-31T06:32:35.740Z,6.20
2022-07-31T06:35:06.092Z,5.75
2022-07-31T06:37:46.099Z,6.30
2022-07-31T06:40:18.707Z,5.88
2022-07-31T06:42:48.788Z,5.93
2022-07-31T06:45:51.493Z,5.68
2022-07-31T06:48:40.733Z,5.60
2022-07-31T06:51:32.371Z,6.20
2022-07-31T06:54:02.554Z,5.68
2022-07-31T06:56:35.241Z,5.70
2022-07-31T06:59:05.446Z,5.40
2022-07-31T07:01:35.340Z,5.10
2022-07-31T07:04:05.701Z,6.50
2022-07-31T07:06:35.476Z,5.32
2022-07-31T07:09:05.327Z,5.70
2022-07-31T07:11:37.867Z,4.70
2022-07-31T07:14:07.530Z,6.07
2022-07-31T07:16:37.243Z,5.32
2022-07-31T07:19:07.191Z,4.72
2022-07-31T07:21:36.945Z,4.75
2022-07-31T07:24:08.195Z,4.20
2022-07-31T07:26:44.975Z,3.20
2022-07-31T07:29:15.002Z,3.83
2022-07-31T07:31:44.711Z,3.40
2022-07-31T07:34:15.129Z,3.30
2022-07-31T07:36:44.822Z,3.28
2022-07-31T07:39:25.019Z,3.30
2022-07-31T07:41:58.185Z,3.20
2022-07-31T07:44:30.251Z,2.70
2022-07-31T07:47:01.159Z,3.30
2022-07-31T07:49:31.868Z,3.10
2022-07-31T07:52:22.159Z,2.97
2022-07-31T07:55:13.286Z,3.10
2022-07-31T07:58:08.761Z,3.00
2022-07-31T08:01:07.281Z,3.00
2022-07-31T08:03:49.636Z,2.67
2022-07-31T08:06:21.875Z,2.70
2022-07-31T08:08:51.920Z,2.70
2022-07-31T08:11:42.254Z,2.38
2022-07-31T08:14:24.497Z,2.55
2022-07-31T08:17:14.683Z,2.40
2022-07-31T08:19:49.550Z,2.58
2022-07-31T08:22:21.458Z,2.30
2022-07-31T08:24:51.268Z,2.60
2022-07-31T08:27:39.911Z,2.20
2022-07-31T08:30:13.739Z,2.13
2022-07-31T08:32:43.415Z,2.20
2022-07-31T08:35:21.889Z,1.80
2022-07-31T08:38:03.573Z,2.40
2022-07-31T08:40:43.613Z,1.90
2022-07-31T08:44:01.830Z,2.00
2022-07-31T08:46:08.019Z,2.57
2022-07-31T08:48:42.896Z,1.80
2022-07-31T08:51:14.719Z,2.10
2022-07-31T08:54:10.503Z,2.33
2022-07-31T08:56:41.469Z,2.40
2022-07-31T08:59:11.845Z,2.33
2022-07-31T09:01:44.684Z,2.30
2022-07-31T09:04:14.696Z,2.40
2022-07-31T09:06:44.968Z,2.38
2022-07-31T09:09:14.651Z,2.55
2022-07-31T09:11:49.886Z,2.47
2022-07-31T09:14:39.672Z,2.50
2022-07-31T09:17:15.361Z,2.30
2022-07-31T09:19:52.476Z,2.15
2022-07-31T09:22:28.591Z,2.22
2022-07-31T09:25:16.224Z,2.20
2022-07-31T09:27:46.272Z,2.10
2022-07-31T09:30:16.842Z,2.10
2022-07-31T09:33:22.362Z,1.90
2022-07-31T09:36:10.649Z,2.33
2022-07-31T09:38:46.425Z,2.30
2022-07-31T09:42:01.397Z,2.50
2022-07-31T09:44:53.945Z,2.70
2022-07-31T09:47:26.790Z,2.23
2022-07-31T09:50:01.149Z,2.50
2022-07-31T09:52:32.142Z,2.50
2022-07-31T09:55:16.130Z,2.20
2022-07-31T09:57:57.855Z,2.50
2022-07-31T10:00:31.397Z,2.90
2022-07-31T10:03:01.452Z,2.60
2022-07-31T10:05:33.956Z,2.80
2022-07-31T10:08:05.568Z,2.50
2022-07-31T10:10:55.680Z,3.08
2022-07-31T10:13:40.698Z,2.80
2022-07-31T10:16:12.395Z,2.50
2022-07-31T10:19:11.525Z,2.75
2022-07-31T10:22:06.950Z,2.80
2022-07-31T10:24:45.394Z,2.57
2022-07-31T10:27:16.462Z,2.30
2022-07-31T10:29:47.290Z,2.67
2022-07-31T10:32:17.121Z,2.58
2022-07-31T10:35:07.564Z,2.60
2022-07-31T10:38:02.809Z,2.80
2022-07-31T10:40:58.176Z,2.70
2022-07-31T10:43:31.497Z,3.00
2022-07-31T10:46:11.685Z,2.67
2022-07-31T10:48:54.240Z,2.95
2022-07-31T10:51:49.700Z,2.80
2022-07-31T10:54:44.979Z,2.80
2022-07-31T10:57:55.904Z,2.80
2022-07-31T11:00:30.289Z,2.90
2022-07-31T11:03:25.632Z,3.17
2022-07-31T11:06:13.892Z,3.15
2022-07-31T11:08:57.756Z,3.17
2022-07-31T11:11:53.743Z,3.10
2022-07-31T11:14:43.021Z,3.65
2022-07-31T11:18:20.913Z,3.40
2022-07-31T11:20:46.950Z,3.03
2022-07-31T11:23:18.467Z,3.10
2022-07-31T11:25:49.056Z,2.97
2022-07-31T11:28:23.770Z,3.50
2022-07-31T11:30:54.756Z,3.13
2022-07-31T11:33:42.114Z,3.30
2022-07-31T11:36:14.804Z,3.13
2022-07-31T11:38:46.954Z,3.17
2022-07-31T11:41:17.492Z,3.50
2022-07-31T11:43:57.349Z,3.28
2022-07-31T11:46:28.787Z,3.20
2022-07-31T11:48:59.330Z,3.30
2022-07-31T11:51:31.004Z,3.90
2022-07-31T11:54:01.007Z,3.42
2022-07-31T11:56:30.801Z,3.40
2022-07-31T11:59:03.165Z,3.47
2022-07-31T12:01:35.309Z,3.30
2022-07-31T12:04:08.801Z,2.90
2022-07-31T12:06:39.826Z,3.17
2022-07-31T12:10:00.268Z,3.50
2022-07-31T12:12:00.884Z,3.30
2022-07-31T12:14:35.122Z,2.80
2022-07-31T12:17:06.149Z,3.57
2022-07-31T12:19:38.741Z,3.33
2022-07-31T12:22:16.067Z,3.45
2022-07-31T12:24:46.355Z,3.20
2022-07-31T12:27:18.452Z,3.10
2022-07-31T12:29:50.723Z,3.20
2022-07-31T12:32:27.071Z,4.07
2022-07-31T12:35:14.348Z,3.75
2022-07-31T12:37:48.711Z,3.05
2022-07-31T12:40:27.158Z,3.30
2022-07-31T12:43:00.408Z,3.70
2022-07-31T12:45:40.244Z,3.42
2022-07-31T12:48:10.193Z,3.20
2022-07-31T12:50:39.896Z,3.20
2022-07-31T12:53:09.899Z,3.00
2022-07-31T12:55:39.728Z,3.25
2022-07-31T12:58:09.467Z,3.10
2022-07-31T13:00:41.799Z,3.20
2022-07-31T13:03:11.852Z,3.00
2022-07-31T13:05:41.556Z,3.40
2022-07-31T13:08:11.456Z,3.20
2022-07-31T13:10:41.062Z,2.95
2022-07-31T13:13:10.760Z,3.30
2022-07-31T13:15:43.136Z,2.97
2022-07-31T13:18:12.872Z,3.40
2022-07-31T13:20:42.622Z,2.90
2022-07-31T13:23:12.311Z,3.00
2022-07-31T13:25:42.066Z,3.40
2022-07-31T13:28:11.746Z,3.03
2022-07-31T13:30:44.231Z,3.10
2022-07-31T13:33:14.030Z,3.42
2022-07-31T13:35:43.709Z,3.60
2022-07-31T13:38:14.749Z,2.95
2022-07-31T13:40:56.828Z,3.13
2022-07-31T13:43:26.580Z,3.90
2022-07-31T13:45:58.819Z,3.50
2022-07-31T13:48:28.679Z,3.30
2022-07-31T13:50:58.582Z,3.70
2022-07-31T13:53:28.233Z,3.60
2022-07-31T13:55:58.767Z,3.50
2022-07-31T13:58:29.759Z,3.67
2022-07-31T14:01:04.507Z,3.53
2022-07-31T14:03:35.373Z,3.80
2022-07-31T14:06:06.163Z,3.85
2022-07-31T14:08:49.727Z,3.30
2022-07-31T14:11:20.159Z,3.50
2022-07-31T14:13:49.854Z,3.90
2022-07-31T14:16:22.113Z,3.50
2022-07-31T14:18:51.846Z,4.22
2022-07-31T14:21:21.503Z,3.70
2022-07-31T14:23:51.191Z,3.80
2022-07-31T14:26:20.948Z,3.55
2022-07-31T14:28:50.615Z,3.80
2022-07-31T14:31:22.929Z,3.92
2022-07-31T14:33:52.565Z,4.28
2022-07-31T14:36:22.257Z,4.03
2022-07-31T14:38:51.999Z,4.00
2022-07-31T14:41:21.648Z,3.83
2022-07-31T14:43:51.340Z,4.30
2022-07-31T14:46:23.619Z,4.88
2022-07-31T14:48:53.314Z,4.03
2022-07-31T14:51:23.035Z,4.20
2022-07-31T14:53:52.748Z,4.60
2022-07-31T14:56:39.588Z,4.13
2022-07-31T14:59:12.264Z,4.25
2022-07-31T15:01:44.751Z,4.30
2022-07-31T15:04:14.518Z,4.13
2022-07-31T15:06:53.070Z,4.30
2022-07-31T15:09:28.884Z,4.60
2022-07-31T15:12:01.295Z,4.50
2022-07-31T15:14:31.401Z,4.10
2022-07-31T15:17:03.935Z,3.90
2022-07-31T15:19:34.071Z,3.67
2022-07-31T15:22:10.100Z,3.60
2022-07-31T15:24:49.155Z,3.35
2022-07-31T15:27:21.829Z,3.13
2022-07-31T15:30:04.405Z,3.57
2022-07-31T15:32:41.230Z,4.00
2022-07-31T15:35:12.376Z,3.40
2022-07-31T15:37:44.185Z,3.50
2022-07-31T15:40:17.022Z,3.60
2022-07-31T15:42:49.054Z,4.00
2022-07-31T15:45:20.798Z,3.97
2022-07-31T15:47:53.160Z,4.60
2022-07-31T15:50:23.000Z,4.90
2022-07-31T15:52:52.767Z,4.88
2022-07-31T15:55:22.474Z,5.32
2022-07-31T15:57:52.192Z,5.45
2022-07-31T16:00:22.044Z,5.60
2022-07-31T16:02:54.758Z,5.83
2022-07-31T16:05:36.499Z,6.30
2022-07-31T16:08:29.338Z,6.28
2022-07-31T16:10:59.217Z,6.60
2022-07-31T16:13:28.929Z,5.93
2022-07-31T16:15:58.533Z,6.68
2022-07-31T16:18:31.335Z,5.90
2022-07-31T16:21:01.084Z,6.05
2022-07-31T16:23:32.631Z,5.80
2022-07-31T16:26:02.364Z,5.80
2022-07-31T16:28:32.031Z,6.10
2022-07-31T16:31:02.012Z,6.50
2022-07-31T16:37:19.398Z,5.20
2022-07-31T16:40:10.388Z,5.30
2022-07-31T16:43:00.989Z,5.25
2022-07-31T16:45:31.880Z,5.40
2022-07-31T16:48:01.557Z,5.10
2022-07-31T16:50:31.267Z,6.20
2022-07-31T16:53:03.611Z,5.35
2022-07-31T16:55:51.602Z,5.57
2022-07-31T16:58:24.587Z,5.20
2022-07-31T17:00:54.678Z,5.40
2022-07-31T17:03:59.288Z,5.78
2022-07-31T17:06:14.500Z,5.60
2022-07-31T17:08:46.798Z,5.72
2022-07-31T17:11:16.531Z,5.78
2022-07-31T17:13:46.188Z,5.50
2022-07-31T17:16:15.849Z,6.28
2022-07-31T17:18:49.499Z,6.03
2022-07-31T17:21:25.672Z,5.25
2022-07-31T17:24:03.320Z,5.70
2022-07-31T17:26:34.137Z,6.40
2022-07-31T17:29:03.776Z,6.07
2022-07-31T17:31:33.505Z,7.13
2022-07-31T17:34:07.323Z,6.00
2022-07-31T17:36:39.242Z,5.75
2022-07-31T17:39:11.691Z,5.40
2022-07-31T17:41:41.363Z,4.78
2022-07-31T17:44:11.023Z,4.90
2022-07-31T17:46:47.966Z,4.38
2022-07-31T17:49:20.611Z,3.83
2022-07-31T17:51:57.767Z,4.20
2022-07-31T17:54:32.707Z,4.25
2022-07-31T17:57:02.402Z,4.43
2022-07-31T17:59:32.287Z,4.32
2022-07-31T18:02:04.027Z,5.15
2022-07-31T18:04:37.046Z,5.15
2022-07-31T18:07:07.971Z,4.95
2022-07-31T18:09:40.203Z,5.30
2022-07-31T18:12:15.096Z,4.37
2022-07-31T18:14:46.360Z,4.57
2022-07-31T18:17:16.015Z,4.22
2022-07-31T18:19:45.676Z,4.72
2022-07-31T18:22:15.464Z,5.03
2022-07-31T18:24:47.731Z,4.80
2022-07-31T18:27:17.543Z,4.80
2022-07-31T18:29:55.714Z,4.80
2022-07-31T18:32:26.002Z,4.90
2022-07-31T18:34:55.646Z,5.30
2022-07-31T18:37:25.356Z,4.77
2022-07-31T18:39:58.959Z,5.00
2022-07-31T18:42:29.573Z,5.15
2022-07-31T18:44:59.766Z,4.90
2022-07-31T18:47:30.289Z,4.70
2022-07-31T18:51:01.760Z,4.97
2022-07-31T18:52:49.807Z,4.55
2022-07-31T18:55:22.163Z,4.72
2022-07-31T18:57:52.789Z,4.50
2022-07-31T19:00:22.501Z,5.00
2022-07-31T19:02:53.028Z,5.15
2022-07-31T19:05:22.731Z,6.10
2022-07-31T19:07:52.457Z,5.00
2022-07-31T19:10:29.667Z,5.40
2022-07-31T19:13:01.919Z,5.30
2022-07-31T19:15:31.867Z,6.75
2022-07-31T19:18:02.195Z,6.97
2022-07-31T19:20:55.714Z,7.35
2022-07-31T19:23:22.644Z,7.00
2022-07-31T19:26:02.323Z,7.30
2022-07-31T19:28:33.167Z,9.40
2022-07-31T19:31:03.023Z,9.63
2022-07-31T19:33:32.744Z,10.32
2022-07-31T19:36:03.462Z,10.00
2022-07-31T19:38:34.064Z,10.20
2022-07-31T19:41:07.034Z,8.77
2022-07-31T19:43:36.954Z,9.93
2022-07-31T19:46:11.838Z,10.40
2022-07-31T19:48:42.835Z,11.55
2022-07-31T19:51:12.739Z,11.98
2022-07-31T19:53:42.937Z,11.63
2022-07-31T19:56:20.706Z,12.38
2022-07-31T19:58:51.791Z,14.25
2022-07-31T20:01:22.627Z,13.50
2022-07-31T20:03:53.146Z,12.70
2022-07-31T20:06:23.058Z,11.23
2022-07-31T20:08:56.927Z,11.10
2022-07-31T20:11:29.215Z,10.15
2022-07-31T20:13:58.978Z,9.70
2022-07-31T20:16:28.603Z,10.32
2022-07-31T20:18:58.470Z,9.65
2022-07-31T20:21:34.918Z,10.07
2022-07-31T20:24:05.119Z,9.50
2022-07-31T20:26:37.726Z,10.40
2022-07-31T20:29:07.719Z,10.30
2022-07-31T20:31:38.021Z,10.55
2022-07-31T20:34:07.725Z,9.52
2022-07-31T20:36:37.407Z,10.30
2022-07-31T20:39:07.403Z,10.17
2022-07-31T20:41:40.514Z,9.75
2022-07-31T20:44:10.205Z,10.00
2022-07-31T20:46:39.944Z,10.15
2022-07-31T20:49:19.910Z,9.60
2022-07-31T20:51:59.288Z,9.50
2022-07-31T20:54:34.767Z,8.95
2022-07-31T20:57:07.320Z,9.90
2022-07-31T20:59:36.971Z,8.68
2022-07-31T21:02:06.936Z,9.32
2022-07-31T21:04:36.973Z,9.27
2022-07-31T21:07:06.697Z,9.90
2022-07-31T21:09:36.868Z,8.80
2022-07-31T21:12:10.312Z,9.98
2022-07-31T21:14:40.027Z,9.18
2022-07-31T21:17:09.621Z,9.18
2022-07-31T21:19:39.746Z,9.40
2022-07-31T21:22:09.583Z,9.48
2022-07-31T21:24:39.807Z,9.75
2022-07-31T21:27:14.465Z,9.10
2022-07-31T21:29:44.686Z,9.60
2022-07-31T21:32:15.821Z,9.38
2022-07-31T21:34:46.048Z,9.82
2022-07-31T21:37:16.262Z,9.32
2022-07-31T21:39:46.468Z,9.82
2022-07-31T21:42:19.423Z,8.77
2022-07-31T21:44:50.180Z,10.25
2022-07-31T21:47:22.854Z,9.90
2022-07-31T21:49:58.357Z,9.93
2022-07-31T21:52:30.100Z,9.53
2022-07-31T21:55:03.845Z,9.32
2022-07-31T21:57:59.263Z,9.20
2022-07-31T22:00:26.376Z,10.10
2022-07-31T22:02:58.977Z,9.90
2022-07-31T22:05:41.201Z,9.98
2022-07-31T22:08:10.816Z,9.30
2022-07-31T22:10:40.512Z,9.73
2022-07-31T22:13:13.051Z,9.82
2022-07-31T22:15:55.526Z,10.15
2022-07-31T22:18:29.938Z,9.10
2022-07-31T22:21:00.356Z,9.90
2022-07-31T22:23:30.964Z,10.45
2022-07-31T22:26:01.020Z,10.30
2022-07-31T22:28:33.715Z,9.95
2022-07-31T22:31:03.835Z,9.70
2022-07-31T22:33:33.708Z,10.77
2022-07-31T22:36:07.060Z,10.10
2022-07-31T22:38:38.114Z,11.82
2022-07-31T22:41:09.102Z,10.60
2022-07-31T22:44:10.710Z,10.60
2022-07-31T22:46:32.644Z,10.57
2022-07-31T22:49:02.785Z,12.25
2022-07-31T22:51:36.627Z,11.52
2022-07-31T22:54:08.078Z,11.00
2022-07-31T22:56:37.833Z,11.18
2022-07-31T22:59:10.323Z,11.18
2022-07-31T23:01:39.974Z,12.65
2022-07-31T23:04:09.762Z,12.00
2022-07-31T23:06:39.437Z,11.65
2022-07-31T23:09:09.079Z,11.27
2022-07-31T23:11:38.764Z,11.70
2022-07-31T23:14:11.109Z,12.48
2022-07-31T23:16:41.024Z,11.25
2022-07-31T23:19:10.867Z,11.95
2022-07-31T23:21:40.747Z,11.00
2022-07-31T23:24:11.451Z,12.02
2022-07-31T23:26:41.232Z,12.35
2022-07-31T23:29:13.585Z,11.40
2022-07-31T23:31:43.247Z,11.90
2022-07-31T23:34:15.852Z,13.27
2022-07-31T23:36:46.054Z,14.15
2022-07-31T23:39:15.724Z,13.35
2022-07-31T23:41:57.801Z,15.90
2022-07-31T23:44:31.969Z,17.15
2022-07-31T23:47:01.732Z,17.52
2022-07-31T23:49:32.621Z,21.13
2022-07-31T23:52:02.595Z,22.42
2022-07-31T23:54:32.537Z,22.75
2022-07-31T23:57:02.211Z,23.65
2022-07-31T23:59:34.493Z,22.15
